createdAt,value
2019-05-03T00:00:18.707Z,101153.17
2019-05-03T00:02:52.176Z,101152.86
2019-05-03T00:05:26.300Z,101154.93
2019-05-03T00:07:57.304Z,101151.37
2019-05-03T00:10:26.870Z,101163.35
2019-05-03T00:12:56.398Z,101150.88
2019-05-03T00:15:27.636Z,101151.16
2019-05-03T00:17:57.324Z,101146.35
2019-05-03T00:20:26.916Z,101146.32
2019-05-03T00:22:57.899Z,101151.95
2019-05-03T00:25:27.429Z,101156.77
2019-05-03T00:27:56.892Z,101159.95
2019-05-03T00:30:26.336Z,101158.31
2019-05-03T00:32:56.071Z,101161.37
2019-05-03T00:35:36.032Z,101163.39
2019-05-03T00:38:08.378Z,101161.28
2019-05-03T00:40:37.949Z,101161.71
2019-05-03T00:43:07.392Z,101164.03
2019-05-03T00:45:36.859Z,101173.81
2019-05-03T00:48:06.485Z,101162.16
2019-05-03T00:50:35.928Z,101166.57
2019-05-03T00:53:05.394Z,101163.74
2019-05-03T00:55:34.857Z,101163.86
2019-05-03T00:58:06.082Z,101161.67
2019-05-03T01:00:35.631Z,101162.52
2019-05-03T01:03:05.248Z,101167.95
2019-05-03T01:05:35.442Z,101159.77
2019-05-03T01:08:05.211Z,101160.30
2019-05-03T01:10:34.675Z,101161.16
2019-05-03T01:13:04.135Z,101162.77
2019-05-03T01:15:35.246Z,101170.20
2019-05-03T01:18:06.367Z,101170.16
2019-05-03T01:20:35.976Z,101165.05
2019-05-03T01:23:05.429Z,101173.83
2019-05-03T01:25:35.609Z,101176.83
2019-05-03T01:28:05.409Z,101173.08
2019-05-03T01:30:34.868Z,101172.48
2019-05-03T01:33:04.699Z,101170.87
2019-05-03T01:35:34.285Z,101170.47
2019-05-03T01:38:03.967Z,101176.78
2019-05-03T01:40:33.421Z,101178.97
2019-05-03T01:43:02.885Z,101179.06
2019-05-03T01:45:32.466Z,101173.30
2019-05-03T01:48:05.229Z,101171.43
2019-05-03T01:50:36.301Z,101170.92
2019-05-03T01:53:07.553Z,101176.09
2019-05-03T01:55:52.482Z,101176.03
2019-05-03T01:58:23.263Z,101166.17
2019-05-03T02:01:07.474Z,101168.23
2019-05-03T02:03:53.903Z,101161.92
2019-05-03T02:06:23.380Z,101167.31
2019-05-03T02:08:52.833Z,101172.04
2019-05-03T02:11:22.360Z,101165.45
2019-05-03T02:13:52.189Z,101167.50
2019-05-03T02:16:21.974Z,101169.91
2019-05-03T02:18:52.335Z,101169.70
2019-05-03T02:21:22.046Z,101176.43
2019-05-03T02:23:52.048Z,101180.50
2019-05-03T02:26:22.436Z,101180.16
2019-05-03T02:28:52.738Z,101176.86
2019-05-03T02:31:23.122Z,101182.91
2019-05-03T02:33:53.632Z,101178.44
2019-05-03T02:36:23.541Z,101186.17
2019-05-03T02:38:53.665Z,101183.16
2019-05-03T02:41:23.318Z,101181.95
2019-05-03T02:43:57.139Z,101186.28
2019-05-03T02:46:28.231Z,101187.20
2019-05-03T02:49:06.427Z,101177.42
2019-05-03T02:51:36.289Z,101185.55
2019-05-03T02:54:05.993Z,101184.60
2019-05-03T02:56:35.948Z,101180.37
2019-05-03T02:59:06.334Z,101187.30
2019-05-03T03:01:36.297Z,101191.34
2019-05-03T03:04:06.137Z,101193.11
2019-05-03T03:06:37.079Z,101198.28
2019-05-03T03:09:07.440Z,101191.83
2019-05-03T03:11:39.161Z,101186.13
2019-05-03T03:14:10.662Z,101191.70
2019-05-03T03:16:45.533Z,101195.34
2019-05-03T03:19:16.728Z,101193.91
2019-05-03T03:21:48.889Z,101202.07
2019-05-03T03:24:20.457Z,101196.37
2019-05-03T03:26:51.803Z,101203.45
2019-05-03T03:29:25.267Z,101210.69
2019-05-03T03:32:09.936Z,101210.18
2019-05-03T03:35:11.962Z,101213.28
2019-05-03T03:37:40.749Z,101216.45
2019-05-03T03:40:10.347Z,101215.26
2019-05-03T03:42:40.805Z,101216.61
2019-05-03T03:45:11.099Z,101214.05
2019-05-03T03:47:40.795Z,101223.55
2019-05-03T03:50:11.947Z,101219.89
2019-05-03T03:52:45.027Z,101229.78
2019-05-03T03:55:16.147Z,101223.73
2019-05-03T03:57:46.821Z,101232.34
2019-05-03T04:00:17.907Z,101229.87
2019-05-03T04:02:47.629Z,101224.38
2019-05-03T04:05:17.298Z,101231.94
2019-05-03T04:07:47.026Z,101234.25
2019-05-03T04:10:16.524Z,101229.22
2019-05-03T04:12:47.492Z,101231.61
2019-05-03T04:15:30.985Z,101232.33
2019-05-03T04:18:09.283Z,101237.56
2019-05-03T04:20:38.850Z,101232.72
2019-05-03T04:23:08.475Z,101239.16
2019-05-03T04:25:38.315Z,101238.34
2019-05-03T04:28:08.486Z,101239.52
2019-05-03T04:30:37.976Z,101245.59
2019-05-03T04:33:07.723Z,101247.53
2019-05-03T04:35:37.323Z,101248.17
2019-05-03T04:38:06.796Z,101255.65
2019-05-03T04:40:36.269Z,101257.06
2019-05-03T04:43:10.027Z,101259.66
2019-05-03T04:45:39.457Z,101259.52
2019-05-03T04:48:09.160Z,101258.13
2019-05-03T04:50:38.597Z,101261.89
2019-05-03T04:53:08.225Z,101264.98
2019-05-03T04:55:37.647Z,101261.00
2019-05-03T04:58:07.101Z,101266.36
2019-05-03T05:00:36.497Z,101268.94
2019-05-03T05:03:06.302Z,101276.24
2019-05-03T05:05:36.453Z,101280.74
2019-05-03T05:08:06.358Z,101278.58
2019-05-03T05:10:36.377Z,101277.00
2019-05-03T05:13:07.445Z,101279.11
2019-05-03T05:15:36.916Z,101278.63
2019-05-03T05:18:10.484Z,101280.99
2019-05-03T05:20:56.701Z,101284.05
2019-05-03T05:23:26.609Z,101285.31
2019-05-03T05:26:05.539Z,101278.03
2019-05-03T05:28:44.722Z,101281.73
2019-05-03T05:31:15.185Z,101279.15
2019-05-03T05:33:44.851Z,101297.11
2019-05-03T05:36:15.276Z,101301.22
2019-05-03T05:38:45.192Z,101291.22
2019-05-03T05:41:15.639Z,101287.92
2019-05-03T05:43:45.301Z,101290.15
2019-05-03T05:46:15.432Z,101290.67
2019-05-03T05:48:49.250Z,101291.91
2019-05-03T05:51:18.689Z,101297.82
2019-05-03T05:53:48.125Z,101292.48
2019-05-03T05:56:35.373Z,101291.42
2019-05-03T05:59:14.703Z,101297.05
2019-05-03T06:01:45.750Z,101295.07
2019-05-03T06:04:15.473Z,101296.84
2019-05-03T06:06:52.365Z,101297.03
2019-05-03T06:09:29.093Z,101296.36
2019-05-03T06:12:00.170Z,101297.59
2019-05-03T06:14:34.698Z,101300.39
2019-05-03T06:17:08.998Z,101297.17
2019-05-03T06:19:44.918Z,101301.07
2019-05-03T06:22:16.096Z,101309.06
2019-05-03T06:24:47.178Z,101305.19
2019-05-03T06:27:24.560Z,101318.58
2019-05-03T06:29:55.645Z,101315.70
2019-05-03T06:32:28.419Z,101313.55
2019-05-03T06:34:57.821Z,101311.42
2019-05-03T06:37:28.942Z,101315.69
2019-05-03T06:39:58.513Z,101316.34
2019-05-03T06:42:28.612Z,101318.67
2019-05-03T06:44:59.169Z,101310.41
2019-05-03T06:47:29.238Z,101313.93
2019-05-03T06:49:58.700Z,101319.33
2019-05-03T06:52:29.443Z,101320.39
2019-05-03T06:55:00.318Z,101316.98
2019-05-03T06:57:30.412Z,101316.54
2019-05-03T07:00:01.490Z,101320.22
2019-05-03T07:02:32.645Z,101312.09
2019-05-03T07:05:10.666Z,101317.95
2019-05-03T07:07:47.642Z,101325.20
2019-05-03T07:10:27.557Z,101328.98
2019-05-03T07:13:01.705Z,101333.94
2019-05-03T07:15:35.138Z,101332.02
2019-05-03T07:18:05.772Z,101335.70
2019-05-03T07:20:46.025Z,101338.86
2019-05-03T07:23:15.794Z,101350.28
2019-05-03T07:25:45.641Z,101338.91
2019-05-03T07:28:15.211Z,101341.38
2019-05-03T07:30:45.346Z,101339.09
2019-05-03T07:33:16.894Z,101333.83
2019-05-03T07:35:47.935Z,101328.63
2019-05-03T07:38:18.707Z,101328.72
2019-05-03T07:40:49.110Z,101329.45
2019-05-03T07:43:18.920Z,101329.09
2019-05-03T07:45:48.504Z,101339.04
2019-05-03T07:48:18.038Z,101332.63
2019-05-03T07:50:47.558Z,101322.11
2019-05-03T07:53:17.081Z,101330.95
2019-05-03T07:55:51.303Z,101320.89
2019-05-03T07:58:28.389Z,101322.52
2019-05-03T08:01:06.277Z,101319.50
2019-05-03T08:03:31.280Z,101325.83
2019-05-03T08:06:04.575Z,101322.20
2019-05-03T08:08:35.358Z,101321.74
2019-05-03T08:11:05.649Z,101327.90
2019-05-03T08:13:35.703Z,101327.86
2019-05-03T08:16:06.043Z,101324.84
2019-05-03T08:18:35.774Z,101323.05
2019-05-03T08:21:06.101Z,101335.92
2019-05-03T08:23:36.323Z,101338.05
2019-05-03T08:26:09.092Z,101334.59
2019-05-03T08:28:38.519Z,101335.69
2019-05-03T08:31:15.387Z,101332.69
2019-05-03T08:33:52.599Z,101326.55
2019-05-03T08:36:22.122Z,101322.80
2019-05-03T08:38:51.721Z,101322.70
2019-05-03T08:41:24.638Z,101321.84
2019-05-03T08:43:55.012Z,101321.52
2019-05-03T08:46:25.372Z,101321.98
2019-05-03T08:48:55.084Z,101316.91
2019-05-03T08:51:25.138Z,101315.83
2019-05-03T08:53:55.991Z,101313.56
2019-05-03T08:56:27.236Z,101313.48
2019-05-03T08:58:56.955Z,101305.84
2019-05-03T09:01:26.573Z,101311.67
2019-05-03T09:03:56.220Z,101309.47
2019-05-03T09:06:25.940Z,101306.55
2019-05-03T09:08:57.274Z,101304.08
2019-05-03T09:11:34.035Z,101306.50
2019-05-03T09:14:05.003Z,101309.47
2019-05-03T09:16:35.567Z,101306.20
2019-05-03T09:19:05.648Z,101303.08
2019-05-03T09:21:36.849Z,101306.45
2019-05-03T09:24:06.551Z,101307.38
2019-05-03T09:26:36.175Z,101307.71
2019-05-03T09:29:05.739Z,101302.81
2019-05-03T09:31:35.835Z,101305.37
2019-05-03T09:34:08.087Z,101308.23
2019-05-03T09:36:36.730Z,101298.94
2019-05-03T09:39:08.170Z,101297.80
2019-05-03T09:41:37.617Z,101304.37
2019-05-03T09:44:07.112Z,101312.20
2019-05-03T09:46:36.545Z,101312.92
2019-05-03T09:49:13.472Z,101313.06
2019-05-03T09:51:39.844Z,101312.47
2019-05-03T09:54:14.867Z,101311.84
2019-05-03T09:56:58.662Z,101307.92
2019-05-03T09:59:29.773Z,101305.14
2019-05-03T10:01:59.953Z,101306.05
2019-05-03T10:04:29.351Z,101310.98
2019-05-03T10:07:00.366Z,101300.40
2019-05-03T10:09:29.885Z,101307.73
2019-05-03T10:12:00.261Z,101299.23
2019-05-03T10:14:29.655Z,101306.31
2019-05-03T10:17:09.717Z,101299.64
2019-05-03T10:19:40.456Z,101294.42
2019-05-03T10:22:10.494Z,101300.61
2019-05-03T10:24:39.962Z,101299.23
2019-05-03T10:27:09.865Z,101295.92
2019-05-03T10:29:39.314Z,101293.41
2019-05-03T10:32:19.401Z,101292.31
2019-05-03T10:34:56.707Z,101292.70
2019-05-03T10:37:35.825Z,101295.38
2019-05-03T10:40:08.100Z,101290.08
2019-05-03T10:42:38.257Z,101295.21
2019-05-03T10:45:08.406Z,101295.98
2019-05-03T10:47:37.872Z,101294.61
2019-05-03T10:50:08.412Z,101286.00
2019-05-03T10:52:40.466Z,101275.19
2019-05-03T10:55:10.264Z,101294.15
2019-05-03T10:57:41.516Z,101312.53
2019-05-03T11:00:40.902Z,101323.94
2019-05-03T11:02:55.084Z,101316.19
2019-05-03T11:05:24.689Z,101306.77
2019-05-03T11:07:55.592Z,101298.14
2019-05-03T11:10:25.418Z,101298.08
2019-05-03T11:12:54.951Z,101297.86
2019-05-03T11:15:25.913Z,101299.33
2019-05-03T11:17:55.458Z,101286.95
2019-05-03T11:20:35.654Z,101285.38
2019-05-03T11:23:07.008Z,101289.24
2019-05-03T11:25:37.322Z,101273.13
2019-05-03T11:28:20.932Z,101277.34
2019-05-03T11:30:55.684Z,101290.58
2019-05-03T11:33:26.043Z,101310.55
2019-05-03T11:35:57.360Z,101329.98
2019-05-03T11:38:31.395Z,101321.41
2019-05-03T11:41:00.814Z,101313.42
2019-05-03T11:43:31.884Z,101313.85
2019-05-03T11:46:01.278Z,101317.48
2019-05-03T11:48:30.919Z,101314.72
2019-05-03T11:51:00.323Z,101308.71
2019-05-03T11:53:29.940Z,101305.23
2019-05-03T11:55:59.345Z,101299.98
2019-05-03T11:58:30.240Z,101305.28
2019-05-03T12:01:14.963Z,101300.80
2019-05-03T12:03:37.307Z,101295.23
2019-05-03T12:06:06.953Z,101286.86
2019-05-03T12:08:36.399Z,101293.69
2019-05-03T12:11:05.964Z,101286.02
2019-05-03T12:13:37.018Z,101284.08
2019-05-03T12:16:17.081Z,101279.31
2019-05-03T12:18:48.884Z,101283.34
2019-05-03T12:21:10.544Z,101287.02
2019-05-03T12:23:40.766Z,101283.32
2019-05-03T12:26:13.491Z,101275.65
2019-05-03T12:28:41.708Z,101271.79
2019-05-03T12:31:25.719Z,101271.81
2019-05-03T12:33:42.241Z,101260.73
2019-05-03T12:36:11.708Z,101263.43
2019-05-03T12:38:41.168Z,101254.76
2019-05-03T12:41:10.717Z,101252.14
2019-05-03T12:43:40.158Z,101251.15
2019-05-03T12:46:09.580Z,101254.17
2019-05-03T12:48:39.027Z,101252.92
2019-05-03T12:51:08.997Z,101250.72
2019-05-03T12:53:38.771Z,101243.17
2019-05-03T12:56:12.360Z,101238.95
2019-05-03T12:58:50.278Z,101232.02
2019-05-03T13:01:21.587Z,101233.09
2019-05-03T13:03:52.696Z,101224.41
2019-05-03T13:06:22.130Z,101227.14
2019-05-03T13:08:51.558Z,101224.20
2019-05-03T13:11:21.060Z,101218.53
2019-05-03T13:13:50.543Z,101214.53
2019-05-03T13:16:20.995Z,101222.94
2019-05-03T13:18:50.440Z,101214.08
2019-05-03T13:21:19.882Z,101218.31
2019-05-03T13:23:49.507Z,101221.57
2019-05-03T13:26:18.921Z,101223.98
2019-05-03T13:28:48.686Z,101222.02
2019-05-03T13:31:18.274Z,101214.10
2019-05-03T13:33:47.710Z,101214.65
2019-05-03T13:36:17.167Z,101204.58
2019-05-03T13:38:46.682Z,101219.61
2019-05-03T13:41:16.126Z,101224.16
2019-05-03T13:43:45.638Z,101223.89
2019-05-03T13:46:15.635Z,101226.14
2019-05-03T13:48:48.850Z,101221.76
2019-05-03T13:51:16.538Z,101219.38
2019-05-03T13:53:46.039Z,101223.27
2019-05-03T13:56:15.616Z,101217.47
2019-05-03T13:58:45.054Z,101226.95
2019-05-03T14:01:14.845Z,101216.89
2019-05-03T14:03:45.230Z,101212.75
2019-05-03T14:06:14.977Z,101207.92
2019-05-03T14:08:45.703Z,101203.05
2019-05-03T14:11:15.655Z,101197.16
2019-05-03T14:13:45.279Z,101194.34
2019-05-03T14:16:14.883Z,101186.80
2019-05-03T14:18:47.482Z,101178.05
2019-05-03T14:21:30.562Z,101182.53
2019-05-03T14:24:07.735Z,101170.38
2019-05-03T14:26:37.768Z,101167.69
2019-05-03T14:29:07.380Z,101162.73
2019-05-03T14:31:36.882Z,101170.70
2019-05-03T14:34:06.401Z,101169.91
2019-05-03T14:36:36.110Z,101166.66
2019-05-03T14:39:09.749Z,101165.02
2019-05-03T14:41:38.815Z,101157.20
2019-05-03T14:44:08.754Z,101154.00
2019-05-03T14:46:38.415Z,101158.73
2019-05-03T14:49:07.899Z,101159.48
2019-05-03T14:51:37.516Z,101150.01
2019-05-03T14:54:07.741Z,101147.45
2019-05-03T14:56:40.347Z,101147.50
2019-05-03T14:59:14.868Z,101147.36
2019-05-03T15:01:46.047Z,101139.91
2019-05-03T15:04:15.583Z,101143.09
2019-05-03T15:06:46.036Z,101143.11
2019-05-03T15:09:18.902Z,101139.91
2019-05-03T15:11:47.586Z,101142.97
2019-05-03T15:14:17.011Z,101152.81
2019-05-03T15:16:46.521Z,101134.00
2019-05-03T15:19:16.554Z,101137.92
2019-05-03T15:21:46.356Z,101130.85
2019-05-03T15:24:16.074Z,101138.39
2019-05-03T15:26:45.616Z,101129.84
2019-05-03T15:29:15.630Z,101130.66
2019-05-03T15:31:45.138Z,101139.53
2019-05-03T15:34:15.244Z,101127.43
2019-05-03T15:36:45.147Z,101128.37
2019-05-03T15:39:15.375Z,101128.64
2019-05-03T15:41:45.097Z,101133.19
2019-05-03T15:44:25.336Z,101130.34
2019-05-03T15:46:56.479Z,101138.81
2019-05-03T15:49:27.722Z,101143.36
2019-05-03T15:51:57.311Z,101143.36
2019-05-03T15:54:26.735Z,101132.13
2019-05-03T15:56:56.145Z,101130.72
2019-05-03T15:59:25.662Z,101138.15
2019-05-03T16:01:55.366Z,101139.92
2019-05-03T16:04:25.114Z,101142.80
2019-05-03T16:06:55.435Z,101134.12
2019-05-03T16:09:25.123Z,101135.69
2019-05-03T16:11:56.031Z,101138.95
2019-05-03T16:14:26.980Z,101140.91
2019-05-03T16:16:56.406Z,101130.48
2019-05-03T16:19:25.922Z,101129.25
2019-05-03T16:21:55.410Z,101123.85
2019-05-03T16:24:25.025Z,101113.00
2019-05-03T16:27:15.876Z,101107.73
2019-05-03T16:29:46.249Z,101112.94
2019-05-03T16:32:15.710Z,101118.20
2019-05-03T16:34:45.135Z,101122.59
2019-05-03T16:37:14.927Z,101119.61
2019-05-03T16:39:45.398Z,101127.50
2019-05-03T16:42:15.396Z,101128.99
2019-05-03T16:44:44.941Z,101135.27
2019-05-03T16:47:15.673Z,101141.70
2019-05-03T16:49:45.294Z,101148.92
2019-05-03T16:52:17.275Z,101138.96
2019-05-03T16:54:45.830Z,101144.58
2019-05-03T16:57:17.494Z,101138.10
2019-05-03T16:59:47.103Z,101137.33
2019-05-03T17:02:17.384Z,101142.58
2019-05-03T17:04:48.619Z,101138.44
2019-05-03T17:07:22.490Z,101138.77
2019-05-03T17:09:56.599Z,101131.83
2019-05-03T17:12:34.806Z,101139.03
2019-05-03T17:15:07.591Z,101143.05
2019-05-03T17:17:37.009Z,101134.75
2019-05-03T17:20:08.332Z,101140.45
2019-05-03T17:22:37.772Z,101134.70
2019-05-03T17:25:07.273Z,101134.55
2019-05-03T17:27:36.655Z,101138.84
2019-05-03T17:30:07.926Z,101161.69
2019-05-03T17:32:37.317Z,101174.01
2019-05-03T17:35:07.283Z,101172.45
2019-05-03T17:37:36.727Z,101158.81
2019-05-03T17:40:24.607Z,101158.62
2019-05-03T17:42:55.935Z,101150.45
2019-05-03T17:45:45.441Z,101155.23
2019-05-03T17:48:15.077Z,101145.12
2019-05-03T17:50:45.409Z,101137.38
2019-05-03T17:53:28.712Z,101131.32
2019-05-03T17:56:08.519Z,101128.82
2019-05-03T17:58:39.602Z,101123.19
2019-05-03T18:01:26.961Z,101131.73
2019-05-03T18:04:10.211Z,101134.58
2019-05-03T18:06:57.912Z,101139.16
2019-05-03T18:09:28.992Z,101152.07
2019-05-03T18:12:04.584Z,101158.02
2019-05-03T18:14:34.557Z,101151.13
2019-05-03T18:17:05.721Z,101137.98
2019-05-03T18:19:35.288Z,101133.19
2019-05-03T18:22:05.304Z,101131.82
2019-05-03T18:24:35.273Z,101133.46
2019-05-03T18:27:05.064Z,101125.73
2019-05-03T18:29:34.764Z,101123.97
2019-05-03T18:32:05.504Z,101112.83
2019-05-03T18:34:36.693Z,101109.20
2019-05-03T18:37:06.224Z,101110.09
2019-05-03T18:39:35.900Z,101113.66
2019-05-03T18:42:06.999Z,101112.45
2019-05-03T18:44:40.706Z,101113.97
2019-05-03T18:47:21.194Z,101105.92
2019-05-03T18:49:50.781Z,101108.42
2019-05-03T18:52:20.381Z,101103.66
2019-05-03T18:54:49.889Z,101106.08
2019-05-03T18:57:19.353Z,101102.05
2019-05-03T18:59:48.743Z,101103.42
2019-05-03T19:02:18.638Z,101101.42
2019-05-03T19:04:49.741Z,101095.20
2019-05-03T19:07:28.326Z,101100.12
2019-05-03T19:12:55.281Z,101087.70
2019-05-03T19:15:25.178Z,101093.10
2019-05-03T19:17:56.492Z,101101.81
2019-05-03T19:20:26.038Z,101094.23
2019-05-03T19:22:55.797Z,101096.42
2019-05-03T19:25:25.640Z,101101.97
2019-05-03T19:27:55.188Z,101095.28
2019-05-03T19:30:24.863Z,101100.21
2019-05-03T19:32:55.178Z,101104.39
2019-05-03T19:35:27.806Z,101099.98
2019-05-03T19:37:57.553Z,101097.40
2019-05-03T19:40:28.613Z,101093.53
2019-05-03T19:42:58.048Z,101091.50
2019-05-03T19:45:27.618Z,101087.55
2019-05-03T19:47:57.045Z,101084.31
2019-05-03T19:50:27.360Z,101086.41
2019-05-03T19:52:58.574Z,101078.67
2019-05-03T19:55:28.040Z,101084.50
2019-05-03T19:57:57.477Z,101072.86
2019-05-03T20:00:31.663Z,101081.81
2019-05-03T20:03:08.100Z,101077.55
2019-05-03T20:05:41.021Z,101076.27
2019-05-03T20:08:12.107Z,101080.87
2019-05-03T20:10:41.576Z,101074.00
2019-05-03T20:13:11.015Z,101072.31
2019-05-03T20:15:40.449Z,101073.73
2019-05-03T20:18:10.163Z,101077.52
2019-05-03T20:20:41.376Z,101073.45
2019-05-03T20:23:10.798Z,101071.30
2019-05-03T20:25:40.232Z,101064.97
2019-05-03T20:28:09.811Z,101063.13
2019-05-03T20:30:39.686Z,101059.83
2019-05-03T20:33:09.081Z,101069.25
2019-05-03T20:35:38.508Z,101064.67
2019-05-03T20:38:07.908Z,101059.16
2019-05-03T20:40:37.404Z,101063.05
2019-05-03T20:43:08.558Z,101051.59
2019-05-03T20:45:39.635Z,101053.44
2019-05-03T20:48:10.669Z,101056.38
2019-05-03T20:50:40.112Z,101068.33
2019-05-03T20:53:09.518Z,101066.84
2019-05-03T20:55:38.951Z,101060.79
2019-05-03T20:58:11.407Z,101058.88
2019-05-03T21:00:40.718Z,101055.71
2019-05-03T21:03:10.126Z,101050.09
2019-05-03T21:05:39.571Z,101053.20
2019-05-03T21:08:09.061Z,101049.88
2019-05-03T21:10:38.499Z,101062.83
2019-05-03T21:13:08.822Z,101062.30
2019-05-03T21:15:50.375Z,101065.48
2019-05-03T21:18:34.523Z,101064.06
2019-05-03T21:21:12.022Z,101065.94
2019-05-03T21:24:01.723Z,101066.09
2019-05-03T21:26:31.315Z,101064.26
2019-05-03T21:29:00.756Z,101057.47
2019-05-03T21:31:30.192Z,101056.69
2019-05-03T21:33:59.615Z,101054.88
2019-05-03T21:36:29.177Z,101056.62
2019-05-03T21:38:59.082Z,101054.41
2019-05-03T21:41:28.509Z,101052.66
2019-05-03T21:43:58.020Z,101052.80
2019-05-03T21:46:34.980Z,101050.84
2019-05-03T21:49:09.995Z,101049.84
2019-05-03T21:51:39.536Z,101045.70
2019-05-03T21:54:09.078Z,101044.46
2019-05-03T21:56:38.484Z,101036.50
2019-05-03T21:59:07.993Z,101039.25
2019-05-03T22:01:39.136Z,101037.48
2019-05-03T22:04:08.907Z,101033.98
2019-05-03T22:06:40.085Z,101037.58
2019-05-03T22:09:09.869Z,101034.06
2019-05-03T22:11:39.419Z,101027.45
2019-05-03T22:14:10.567Z,101031.79
2019-05-03T22:16:41.801Z,101029.73
2019-05-03T22:19:11.406Z,101029.64
2019-05-03T22:21:45.366Z,101023.30
2019-05-03T22:24:22.205Z,101026.72
2019-05-03T22:26:53.287Z,101023.02
2019-05-03T22:29:22.706Z,101022.20
2019-05-03T22:31:52.099Z,101015.20
2019-05-03T22:34:21.546Z,101021.20
2019-05-03T22:36:50.942Z,101010.41
2019-05-03T22:39:20.379Z,101008.77
2019-05-03T22:41:49.783Z,101006.97
2019-05-03T22:44:19.224Z,101001.95
2019-05-03T22:46:48.628Z,100998.40
2019-05-03T22:49:18.050Z,101004.23
2019-05-03T22:51:47.448Z,101001.27
2019-05-03T22:54:16.983Z,101015.75
2019-05-03T22:56:46.371Z,101021.96
2019-05-03T22:59:15.888Z,101008.09
2019-05-03T23:01:45.885Z,101004.75
2019-05-03T23:04:15.496Z,101009.27
2019-05-03T23:06:47.055Z,101009.20
2019-05-03T23:09:16.158Z,101007.21
2019-05-03T23:11:47.094Z,101006.11
2019-05-03T23:14:16.624Z,100994.97
2019-05-03T23:16:46.061Z,100998.14
2019-05-03T23:19:15.565Z,100991.88
2019-05-03T23:21:46.711Z,100991.73
2019-05-03T23:24:16.126Z,100992.93
2019-05-03T23:26:45.585Z,100982.92
2019-05-03T23:29:15.163Z,100987.76
2019-05-03T23:31:46.113Z,100984.03
2019-05-03T23:34:15.532Z,100981.10
2019-05-03T23:36:45.565Z,100984.56
2019-05-03T23:39:16.267Z,100989.14
2019-05-03T23:41:45.688Z,100983.80
2019-05-03T23:44:15.257Z,100991.81
2019-05-03T23:46:47.307Z,100988.77
2019-05-03T23:49:16.733Z,100991.27
2019-05-03T23:51:50.530Z,100979.14
2019-05-03T23:54:20.404Z,100980.14
2019-05-03T23:56:51.560Z,100981.25
2019-05-03T23:59:20.999Z,100976.61
